sensor_id;sensor_type;location;lat;lon;timestamp;pressure;altitude;pressure_sealevel;temperature;humidity
54459;BME280;40368;49.350;8.152;2023-09-18T00:00:07;994.4;;;26.22;50.23
54459;BME280;40368;49.350;8.152;2023-09-18T00:01:06;994.3;;;26.19;50.38
54459;BME280;40368;49.350;8.152;2023-09-18T00:02:06;994.3;;;26.13;50.39
54459;BME280;40368;49.350;8.152;2023-09-18T00:03:06;994.3;;;26.11;50.46
54459;BME280;40368;49.350;8.152;2023-09-18T00:04:06;994.3;;;26.12;50.37
54459;BME280;40368;49.350;8.152;2023-09-18T00:05:07;994.3;;;26.17;50.13
54459;BME280;40368;49.350;8.152;2023-09-18T00:06:07;994.3;;;26.21;50.09
54459;BME280;40368;49.350;8.152;2023-09-18T00:07:07;994.3;;;26.22;50.1
54459;BME280;40368;49.350;8.152;2023-09-18T00:08:07;994.3;;;26.27;49.93
54459;BME280;40368;49.350;8.152;2023-09-18T00:09:07;994.3;;;26.3;49.87
54459;BME280;40368;49.350;8.152;2023-09-18T00:10:07;994.3;;;26.31;49.93
54459;BME280;40368;49.350;8.152;2023-09-18T00:11:06;994.3;;;26.31;49.86
54459;BME280;40368;49.350;8.152;2023-09-18T00:12:06;994.4;;;26.3;49.66
54459;BME280;40368;49.350;8.152;2023-09-18T00:13:06;994.3;;;26.25;50
54459;BME280;40368;49.350;8.152;2023-09-18T00:14:07;994.3;;;26.24;50
54459;BME280;40368;49.350;8.152;2023-09-18T00:15:07;994.3;;;26.19;50.05
54459;BME280;40368;49.350;8.152;2023-09-18T00:16:06;994.2;;;26.17;50.05
54459;BME280;40368;49.350;8.152;2023-09-18T00:17:07;994.3;;;26.16;50.1
54459;BME280;40368;49.350;8.152;2023-09-18T00:18:06;994.3;;;26.14;50.3
54459;BME280;40368;49.350;8.152;2023-09-18T00:19:08;994.2;;;26.17;49.97
54459;BME280;40368;49.350;8.152;2023-09-18T00:20:07;994.2;;;26.15;50.12
54459;BME280;40368;49.350;8.152;2023-09-18T00:21:06;994.2;;;26.14;50.14
54459;BME280;40368;49.350;8.152;2023-09-18T00:22:07;994.2;;;26.13;50.29
54459;BME280;40368;49.350;8.152;2023-09-18T00:23:07;994.2;;;26.09;50.4
54459;BME280;40368;49.350;8.152;2023-09-18T00:24:06;994.2;;;26.1;50.32
54459;BME280;40368;49.350;8.152;2023-09-18T00:25:07;994.1;;;26.08;50.32
54459;BME280;40368;49.350;8.152;2023-09-18T00:26:06;994.2;;;26.09;50.38
54459;BME280;40368;49.350;8.152;2023-09-18T00:27:06;994.2;;;26.06;50.66
54459;BME280;40368;49.350;8.152;2023-09-18T00:28:07;994.2;;;26.01;50.45
54459;BME280;40368;49.350;8.152;2023-09-18T00:29:07;994.2;;;26.05;50.33
54459;BME280;40368;49.350;8.152;2023-09-18T00:30:07;994.1;;;26.07;50.27
54459;BME280;40368;49.350;8.152;2023-09-18T00:31:07;994.2;;;26.04;50.53
54459;BME280;40368;49.350;8.152;2023-09-18T00:32:07;994.2;;;26.01;50.48
54459;BME280;40368;49.350;8.152;2023-09-18T00:33:06;994.1;;;26.01;50.52
54459;BME280;40368;49.350;8.152;2023-09-18T00:34:07;994.1;;;26;50.52
54459;BME280;40368;49.350;8.152;2023-09-18T00:35:07;994.1;;;25.97;50.36
54459;BME280;40368;49.350;8.152;2023-09-18T00:36:07;994.1;;;25.98;50.5
54459;BME280;40368;49.350;8.152;2023-09-18T00:37:07;994;;;26;50.47
54459;BME280;40368;49.350;8.152;2023-09-18T00:38:07;994.1;;;26.03;50.21
54459;BME280;40368;49.350;8.152;2023-09-18T00:39:07;994.1;;;26.05;50.61
54459;BME280;40368;49.350;8.152;2023-09-18T00:40:08;994.1;;;26.08;50.28
54459;BME280;40368;49.350;8.152;2023-09-18T00:41:07;994;;;26.07;50.18
54459;BME280;40368;49.350;8.152;2023-09-18T00:42:07;994;;;26.05;50.26
54459;BME280;40368;49.350;8.152;2023-09-18T00:43:07;994;;;26.07;50.17
54459;BME280;40368;49.350;8.152;2023-09-18T00:44:07;994;;;26.06;50.12
54459;BME280;40368;49.350;8.152;2023-09-18T00:45:07;994;;;26.07;50.14
54459;BME280;40368;49.350;8.152;2023-09-18T00:46:07;994;;;26.03;50.07
54459;BME280;40368;49.350;8.152;2023-09-18T00:47:07;994;;;25.99;50.33
54459;BME280;40368;49.350;8.152;2023-09-18T00:48:07;993.9;;;25.98;50.26
54459;BME280;40368;49.350;8.152;2023-09-18T00:49:07;993.9;;;25.98;50.29
54459;BME280;40368;49.350;8.152;2023-09-18T00:50:07;993.9;;;25.98;50.23
54459;BME280;40368;49.350;8.152;2023-09-18T00:51:08;993.9;;;26.01;50.24
54459;BME280;40368;49.350;8.152;2023-09-18T00:52:07;994;;;26.02;50.17
54459;BME280;40368;49.350;8.152;2023-09-18T00:53:07;994;;;25.99;50.19
54459;BME280;40368;49.350;8.152;2023-09-18T00:54:08;994;;;25.96;50.31
54459;BME280;40368;49.350;8.152;2023-09-18T00:55:07;994;;;25.97;50.34
54459;BME280;40368;49.350;8.152;2023-09-18T00:56:07;994;;;25.88;50.54
54459;BME280;40368;49.350;8.152;2023-09-18T00:57:06;994.1;;;25.86;50.63
54459;BME280;40368;49.350;8.152;2023-09-18T00:58:07;994.1;;;25.88;50.42
54459;BME280;40368;49.350;8.152;2023-09-18T01:00:08;994.1;;;25.95;50.52
54459;BME280;40368;49.350;8.152;2023-09-18T01:01:06;994;;;25.92;50.24
54459;BME280;40368;49.350;8.152;2023-09-18T01:02:07;994;;;25.9;50.67
54459;BME280;40368;49.350;8.152;2023-09-18T01:03:07;994;;;25.94;50.37
54459;BME280;40368;49.350;8.152;2023-09-18T01:04:07;994;;;25.99;50.12
54459;BME280;40368;49.350;8.152;2023-09-18T01:05:07;994;;;25.97;50.43
54459;BME280;40368;49.350;8.152;2023-09-18T01:06:07;993.9;;;25.96;50.13
54459;BME280;40368;49.350;8.152;2023-09-18T01:07:06;993.9;;;25.96;50.06
54459;BME280;40368;49.350;8.152;2023-09-18T01:08:07;993.9;;;26;50.12
54459;BME280;40368;49.350;8.152;2023-09-18T01:09:06;993.9;;;26.04;50
54459;BME280;40368;49.350;8.152;2023-09-18T01:10:08;993.9;;;26.07;49.99
54459;BME280;40368;49.350;8.152;2023-09-18T01:11:09;993.8;;;26.05;50.08
54459;BME280;40368;49.350;8.152;2023-09-18T01:12:08;993.9;;;26.01;49.59
54459;BME280;40368;49.350;8.152;2023-09-18T01:13:08;993.8;;;26.03;50.12
54459;BME280;40368;49.350;8.152;2023-09-18T01:14:09;993.8;;;25.98;50.29
54459;BME280;40368;49.350;8.152;2023-09-18T01:15:07;993.9;;;25.93;50.3
54459;BME280;40368;49.350;8.152;2023-09-18T01:16:08;993.9;;;25.9;50.32
54459;BME280;40368;49.350;8.152;2023-09-18T01:17:07;993.9;;;25.87;50.42
54459;BME280;40368;49.350;8.152;2023-09-18T01:18:07;993.9;;;25.83;50.54
54459;BME280;40368;49.350;8.152;2023-09-18T01:19:06;993.9;;;25.8;50.48
54459;BME280;40368;49.350;8.152;2023-09-18T01:20:09;994.1;;;25.79;50.45
54459;BME280;40368;49.350;8.152;2023-09-18T01:21:07;994.2;;;25.77;50.82
54459;BME280;40368;49.350;8.152;2023-09-18T01:22:08;994.3;;;25.78;50.82
54459;BME280;40368;49.350;8.152;2023-09-18T01:23:07;994.4;;;25.79;50.58
54459;BME280;40368;49.350;8.152;2023-09-18T01:24:06;994.6;;;25.81;50.28
54459;BME280;40368;49.350;8.152;2023-09-18T01:25:07;994.7;;;25.86;50.59
54459;BME280;40368;49.350;8.152;2023-09-18T01:26:07;994.7;;;25.91;50
54459;BME280;40368;49.350;8.152;2023-09-18T01:27:08;994.7;;;26;50.19
54459;BME280;40368;49.350;8.152;2023-09-18T01:28:06;994.7;;;26.07;49.77
54459;BME280;40368;49.350;8.152;2023-09-18T01:29:06;994.5;;;26.12;49.65
54459;BME280;40368;49.350;8.152;2023-09-18T01:30:07;994.3;;;26.19;51.86
54459;BME280;40368;49.350;8.152;2023-09-18T01:31:07;994.4;;;26.2;52.06
54459;BME280;40368;49.350;8.152;2023-09-18T01:32:07;994.3;;;26.15;52.26
54459;BME280;40368;49.350;8.152;2023-09-18T01:33:06;994.1;;;26.15;52.42
54459;BME280;40368;49.350;8.152;2023-09-18T01:34:07;994.1;;;26.16;52.76
54459;BME280;40368;49.350;8.152;2023-09-18T01:35:07;994;;;26.12;53.32
54459;BME280;40368;49.350;8.152;2023-09-18T01:36:07;993.9;;;26.09;53.43
54459;BME280;40368;49.350;8.152;2023-09-18T01:37:07;993.9;;;26.13;50.39
54459;BME280;40368;49.350;8.152;2023-09-18T01:38:07;993.9;;;26.23;52.02
54459;BME280;40368;49.350;8.152;2023-09-18T01:39:07;993.9;;;26.25;51.77
54459;BME280;40368;49.350;8.152;2023-09-18T01:40:08;993.9;;;26.28;52.78
54459;BME280;40368;49.350;8.152;2023-09-18T01:41:06;994;;;26.25;53.15
54459;BME280;40368;49.350;8.152;2023-09-18T01:42:07;994;;;26.23;51.68
54459;BME280;40368;49.350;8.152;2023-09-18T01:43:06;994;;;26.19;52.85
54459;BME280;40368;49.350;8.152;2023-09-18T01:44:06;994;;;26.19;52.83
54459;BME280;40368;49.350;8.152;2023-09-18T01:45:07;994.1;;;26.24;53.95
54459;BME280;40368;49.350;8.152;2023-09-18T01:46:07;994;;;26.2;51.3
54459;BME280;40368;49.350;8.152;2023-09-18T01:47:07;994;;;26.23;51.01
54459;BME280;40368;49.350;8.152;2023-09-18T01:48:06;994.1;;;26.22;52.51
54459;BME280;40368;49.350;8.152;2023-09-18T01:49:07;994;;;26.2;50.83
54459;BME280;40368;49.350;8.152;2023-09-18T01:50:07;994.1;;;26.23;51.33
54459;BME280;40368;49.350;8.152;2023-09-18T01:51:06;994.1;;;26.27;53.14
54459;BME280;40368;49.350;8.152;2023-09-18T01:52:07;994.1;;;26.29;50.49
54459;BME280;40368;49.350;8.152;2023-09-18T01:53:06;994.1;;;26.32;52.75
54459;BME280;40368;49.350;8.152;2023-09-18T01:54:07;994.2;;;26.31;51.44
54459;BME280;40368;49.350;8.152;2023-09-18T01:55:07;994.1;;;26.31;51.79
54459;BME280;40368;49.350;8.152;2023-09-18T01:56:07;994.2;;;26.36;52.61
54459;BME280;40368;49.350;8.152;2023-09-18T01:57:07;994.2;;;26.36;51.9
54459;BME280;40368;49.350;8.152;2023-09-18T01:58:07;994.2;;;26.37;50.58
54459;BME280;40368;49.350;8.152;2023-09-18T01:59:01;994.3;;;26.34;53.15
54459;BME280;40368;49.350;8.152;2023-09-18T02:00:07;994.2;;;26.33;51.48
54459;BME280;40368;49.350;8.152;2023-09-18T02:01:06;994.2;;;26.36;51.1
54459;BME280;40368;49.350;8.152;2023-09-18T02:02:07;994.2;;;26.36;50.88
54459;BME280;40368;49.350;8.152;2023-09-18T02:03:06;994.1;;;26.36;52.28
54459;BME280;40368;49.350;8.152;2023-09-18T02:04:06;994.1;;;26.34;52.51
54459;BME280;40368;49.350;8.152;2023-09-18T02:05:07;994.1;;;26.31;51.21
54459;BME280;40368;49.350;8.152;2023-09-18T02:06:06;994.2;;;26.3;53.4
54459;BME280;40368;49.350;8.152;2023-09-18T02:07:06;994.2;;;26.26;53.38
54459;BME280;40368;49.350;8.152;2023-09-18T02:08:07;994.1;;;26.24;51.04
54459;BME280;40368;49.350;8.152;2023-09-18T02:09:07;994;;;26.2;51.12
54459;BME280;40368;49.350;8.152;2023-09-18T02:10:07;994.2;;;26.18;52.84
54459;BME280;40368;49.350;8.152;2023-09-18T02:11:07;994.2;;;26.17;52.69
54459;BME280;40368;49.350;8.152;2023-09-18T02:12:07;994.2;;;26.19;52.9
54459;BME280;40368;49.350;8.152;2023-09-18T02:13:07;994.1;;;26.14;51.77
54459;BME280;40368;49.350;8.152;2023-09-18T02:14:07;994.1;;;26.18;51.75
54459;BME280;40368;49.350;8.152;2023-09-18T02:15:07;994.2;;;26.18;53.6
54459;BME280;40368;49.350;8.152;2023-09-18T02:16:07;994;;;26.11;53.51
54459;BME280;40368;49.350;8.152;2023-09-18T02:17:06;994;;;26.09;51.31
54459;BME280;40368;49.350;8.152;2023-09-18T02:18:07;994.1;;;26.13;51.37
54459;BME280;40368;49.350;8.152;2023-09-18T02:19:07;994.1;;;26.17;53.05
54459;BME280;40368;49.350;8.152;2023-09-18T02:20:07;994.2;;;26.2;51.08
54459;BME280;40368;49.350;8.152;2023-09-18T02:21:07;994.2;;;26.17;49.95
54459;BME280;40368;49.350;8.152;2023-09-18T02:22:07;994.1;;;26.12;49.29
54459;BME280;40368;49.350;8.152;2023-09-18T02:23:07;994.2;;;26.1;48.94
54459;BME280;40368;49.350;8.152;2023-09-18T02:24:07;994.2;;;26.07;48.62
54459;BME280;40368;49.350;8.152;2023-09-18T02:25:07;994.2;;;26.06;48.8
54459;BME280;40368;49.350;8.152;2023-09-18T02:26:07;994.2;;;26.06;48.75
54459;BME280;40368;49.350;8.152;2023-09-18T02:27:06;994.4;;;26.05;48.57
54459;BME280;40368;49.350;8.152;2023-09-18T02:28:07;994.2;;;26.04;48.56
54459;BME280;40368;49.350;8.152;2023-09-18T02:29:07;994.2;;;26.04;48.27
54459;BME280;40368;49.350;8.152;2023-09-18T02:30:07;994;;;26.04;48.37
54459;BME280;40368;49.350;8.152;2023-09-18T02:31:06;993.9;;;26.05;48.43
54459;BME280;40368;49.350;8.152;2023-09-18T02:32:07;993.9;;;26.07;48.2
54459;BME280;40368;49.350;8.152;2023-09-18T02:33:07;993.9;;;26.09;48.57
54459;BME280;40368;49.350;8.152;2023-09-18T02:34:07;993.8;;;26.12;48.15
54459;BME280;40368;49.350;8.152;2023-09-18T02:35:07;994;;;26.13;48.08
54459;BME280;40368;49.350;8.152;2023-09-18T02:36:07;994;;;26.16;47.99
54459;BME280;40368;49.350;8.152;2023-09-18T02:37:07;994;;;26.19;47.89
54459;BME280;40368;49.350;8.152;2023-09-18T02:38:07;993.9;;;26.23;47.96
54459;BME280;40368;49.350;8.152;2023-09-18T02:39:06;993.9;;;26.27;48.2
54459;BME280;40368;49.350;8.152;2023-09-18T02:40:08;993.9;;;26.29;47.61
54459;BME280;40368;49.350;8.152;2023-09-18T02:41:07;993.8;;;26.3;47.98
54459;BME280;40368;49.350;8.152;2023-09-18T02:43:07;993.8;;;26.36;47.8
54459;BME280;40368;49.350;8.152;2023-09-18T02:44:06;993.7;;;26.41;47.6
54459;BME280;40368;49.350;8.152;2023-09-18T02:45:07;993.7;;;26.45;47.57
54459;BME280;40368;49.350;8.152;2023-09-18T02:46:07;993.8;;;26.49;47.8
54459;BME280;40368;49.350;8.152;2023-09-18T02:47:06;993.8;;;26.5;47.62
54459;BME280;40368;49.350;8.152;2023-09-18T02:48:06;993.7;;;26.51;47.41
54459;BME280;40368;49.350;8.152;2023-09-18T02:49:07;993.8;;;26.51;47.3
54459;BME280;40368;49.350;8.152;2023-09-18T02:50:07;993.8;;;26.53;47.23
54459;BME280;40368;49.350;8.152;2023-09-18T02:51:07;993.8;;;26.52;47.23
54459;BME280;40368;49.350;8.152;2023-09-18T02:52:07;993.8;;;26.54;47.38
54459;BME280;40368;49.350;8.152;2023-09-18T02:53:07;993.8;;;26.58;47.05
54459;BME280;40368;49.350;8.152;2023-09-18T02:54:07;993.8;;;26.63;47.23
54459;BME280;40368;49.350;8.152;2023-09-18T02:55:07;993.7;;;26.64;47.18
54459;BME280;40368;49.350;8.152;2023-09-18T02:56:06;993.7;;;26.67;47.21
54459;BME280;40368;49.350;8.152;2023-09-18T02:57:07;993.6;;;26.7;46.94
54459;BME280;40368;49.350;8.152;2023-09-18T02:58:07;993.7;;;26.71;47.31
54459;BME280;40368;49.350;8.152;2023-09-18T03:00:07;993.6;;;26.73;48
54459;BME280;40368;49.350;8.152;2023-09-18T03:01:07;993.7;;;26.73;47.4
54459;BME280;40368;49.350;8.152;2023-09-18T03:02:06;993.7;;;26.73;47.45
54459;BME280;40368;49.350;8.152;2023-09-18T03:03:07;993.7;;;26.73;47.52
54459;BME280;40368;49.350;8.152;2023-09-18T03:04:07;993.7;;;26.73;48.1
54459;BME280;40368;49.350;8.152;2023-09-18T03:05:07;993.8;;;26.72;47.6
54459;BME280;40368;49.350;8.152;2023-09-18T03:06:07;993.8;;;26.73;49.01
54459;BME280;40368;49.350;8.152;2023-09-18T03:07:07;993.8;;;26.71;50.19
54459;BME280;40368;49.350;8.152;2023-09-18T03:08:07;993.8;;;26.7;49.95
54459;BME280;40368;49.350;8.152;2023-09-18T03:10:07;993.8;;;26.71;50.33
54459;BME280;40368;49.350;8.152;2023-09-18T03:11:10;993.8;;;26.7;49.45
54459;BME280;40368;49.350;8.152;2023-09-18T03:12:07;993.8;;;26.7;50.54
54459;BME280;40368;49.350;8.152;2023-09-18T03:13:07;993.8;;;26.67;50.83
54459;BME280;40368;49.350;8.152;2023-09-18T03:14:07;993.8;;;26.65;50.15
54459;BME280;40368;49.350;8.152;2023-09-18T03:15:07;993.8;;;26.67;50.32
54459;BME280;40368;49.350;8.152;2023-09-18T03:16:09;993.7;;;26.64;50.78
54459;BME280;40368;49.350;8.152;2023-09-18T03:17:07;993.7;;;26.61;50.83
54459;BME280;40368;49.350;8.152;2023-09-18T03:18:07;993.7;;;26.62;49.48
54459;BME280;40368;49.350;8.152;2023-09-18T03:19:07;993.7;;;26.63;49.94
54459;BME280;40368;49.350;8.152;2023-09-18T03:20:07;993.7;;;26.64;50.43
54459;BME280;40368;49.350;8.152;2023-09-18T03:21:07;993.7;;;26.64;51.17
54459;BME280;40368;49.350;8.152;2023-09-18T03:22:07;993.7;;;26.64;49.35
54459;BME280;40368;49.350;8.152;2023-09-18T03:23:07;993.6;;;26.65;51.4
54459;BME280;40368;49.350;8.152;2023-09-18T03:24:07;993.7;;;26.62;50.8
54459;BME280;40368;49.350;8.152;2023-09-18T03:25:07;993.6;;;26.61;50.53
54459;BME280;40368;49.350;8.152;2023-09-18T03:26:07;993.7;;;26.61;50.49
54459;BME280;40368;49.350;8.152;2023-09-18T03:27:07;993.7;;;26.61;49.88
54459;BME280;40368;49.350;8.152;2023-09-18T03:28:07;993.8;;;26.59;49.88
54459;BME280;40368;49.350;8.152;2023-09-18T03:29:07;993.8;;;26.54;49.86
54459;BME280;40368;49.350;8.152;2023-09-18T03:30:07;993.8;;;26.52;49.14
54459;BME280;40368;49.350;8.152;2023-09-18T03:31:07;993.9;;;26.51;49.57
54459;BME280;40368;49.350;8.152;2023-09-18T03:32:07;994;;;26.54;49.61
54459;BME280;40368;49.350;8.152;2023-09-18T03:33:07;993.9;;;26.55;48.66
54459;BME280;40368;49.350;8.152;2023-09-18T03:34:07;994;;;26.58;48.97
54459;BME280;40368;49.350;8.152;2023-09-18T03:35:07;994;;;26.58;47.52
54459;BME280;40368;49.350;8.152;2023-09-18T03:36:07;994.1;;;26.59;48.77
54459;BME280;40368;49.350;8.152;2023-09-18T03:37:07;994;;;26.55;48.8
54459;BME280;40368;49.350;8.152;2023-09-18T03:38:07;994.2;;;26.54;49.51
54459;BME280;40368;49.350;8.152;2023-09-18T03:39:07;994.2;;;26.54;48.52
54459;BME280;40368;49.350;8.152;2023-09-18T03:40:07;994.3;;;26.53;49.2
54459;BME280;40368;49.350;8.152;2023-09-18T03:41:07;994.3;;;26.53;48.59
54459;BME280;40368;49.350;8.152;2023-09-18T03:42:07;994.3;;;26.52;49
54459;BME280;40368;49.350;8.152;2023-09-18T03:43:07;994.3;;;26.49;48.55
54459;BME280;40368;49.350;8.152;2023-09-18T03:44:07;994.3;;;26.47;48.71
54459;BME280;40368;49.350;8.152;2023-09-18T03:45:07;994.2;;;26.46;49.31
54459;BME280;40368;49.350;8.152;2023-09-18T03:46:07;994.2;;;26.45;48.38
54459;BME280;40368;49.350;8.152;2023-09-18T03:47:07;994.1;;;26.42;49.42
54459;BME280;40368;49.350;8.152;2023-09-18T03:48:07;994.2;;;26.38;49.75
54459;BME280;40368;49.350;8.152;2023-09-18T03:49:07;994.1;;;26.36;49.63
54459;BME280;40368;49.350;8.152;2023-09-18T03:50:07;994.1;;;26.33;48.63
54459;BME280;40368;49.350;8.152;2023-09-18T03:51:07;994.1;;;26.31;50.23
54459;BME280;40368;49.350;8.152;2023-09-18T03:52:07;994.1;;;26.31;49.65
54459;BME280;40368;49.350;8.152;2023-09-18T03:53:07;994.1;;;26.34;48.75
54459;BME280;40368;49.350;8.152;2023-09-18T03:54:07;994.1;;;26.36;50
54459;BME280;40368;49.350;8.152;2023-09-18T03:55:07;993.9;;;26.31;49.41
54459;BME280;40368;49.350;8.152;2023-09-18T03:56:07;993.9;;;26.26;49.93
54459;BME280;40368;49.350;8.152;2023-09-18T03:57:07;993.9;;;26.25;50.38
54459;BME280;40368;49.350;8.152;2023-09-18T03:58:08;993.9;;;26.25;50.3
54459;BME280;40368;49.350;8.152;2023-09-18T03:59:07;993.9;;;26.26;50.57
54459;BME280;40368;49.350;8.152;2023-09-18T04:00:07;993.9;;;26.24;51.11
54459;BME280;40368;49.350;8.152;2023-09-18T04:01:07;993.9;;;26.23;51.09
54459;BME280;40368;49.350;8.152;2023-09-18T04:02:07;994;;;26.23;52.08
54459;BME280;40368;49.350;8.152;2023-09-18T04:03:07;994.2;;;26.24;51.02
54459;BME280;40368;49.350;8.152;2023-09-18T04:04:07;994.2;;;26.25;52.57
54459;BME280;40368;49.350;8.152;2023-09-18T04:05:07;994.1;;;26.24;52.63
54459;BME280;40368;49.350;8.152;2023-09-18T04:06:07;993.9;;;26.24;53.16
54459;BME280;40368;49.350;8.152;2023-09-18T04:07:08;993.8;;;26.21;53.17
54459;BME280;40368;49.350;8.152;2023-09-18T04:08:07;993.7;;;26.15;51.81
54459;BME280;40368;49.350;8.152;2023-09-18T04:09:07;993.8;;;26.17;51.14
54459;BME280;40368;49.350;8.152;2023-09-18T04:10:07;993.8;;;26.19;52.15
54459;BME280;40368;49.350;8.152;2023-09-18T04:11:07;993.9;;;26.23;50.32
54459;BME280;40368;49.350;8.152;2023-09-18T04:12:07;993.8;;;26.22;51.76
54459;BME280;40368;49.350;8.152;2023-09-18T04:13:07;993.7;;;26.2;52.84
54459;BME280;40368;49.350;8.152;2023-09-18T04:14:07;993.7;;;26.18;52.78
54459;BME280;40368;49.350;8.152;2023-09-18T04:15:07;993.7;;;26.17;51.42
54459;BME280;40368;49.350;8.152;2023-09-18T04:16:07;993.6;;;26.17;52.04
54459;BME280;40368;49.350;8.152;2023-09-18T04:18:07;993.6;;;26.1;52.59
54459;BME280;40368;49.350;8.152;2023-09-18T04:19:07;993.6;;;26.08;52.54
54459;BME280;40368;49.350;8.152;2023-09-18T04:20:07;993.5;;;26.07;52.8
54459;BME280;40368;49.350;8.152;2023-09-18T04:21:07;993.4;;;26.08;52.82
54459;BME280;40368;49.350;8.152;2023-09-18T04:22:06;993.4;;;26.08;51.07
54459;BME280;40368;49.350;8.152;2023-09-18T04:23:22;993.4;;;26.07;52.68
54459;BME280;40368;49.350;8.152;2023-09-18T04:24:07;993.4;;;26.05;54.19
54459;BME280;40368;49.350;8.152;2023-09-18T04:25:07;993.4;;;25.99;51.87
54459;BME280;40368;49.350;8.152;2023-09-18T04:26:07;993.3;;;26.03;52.07
54459;BME280;40368;49.350;8.152;2023-09-18T04:27:07;993.3;;;26.04;52.8
54459;BME280;40368;49.350;8.152;2023-09-18T04:28:07;993.2;;;26.05;52.25
54459;BME280;40368;49.350;8.152;2023-09-18T04:29:08;993.2;;;26.07;51.87
54459;BME280;40368;49.350;8.152;2023-09-18T04:30:07;993.2;;;26.1;53.65
54459;BME280;40368;49.350;8.152;2023-09-18T04:31:07;993.3;;;26.09;51.08
54459;BME280;40368;49.350;8.152;2023-09-18T04:32:07;993.3;;;26.09;51.38
54459;BME280;40368;49.350;8.152;2023-09-18T04:33:07;993.2;;;26.09;53.34
54459;BME280;40368;49.350;8.152;2023-09-18T04:34:07;993.2;;;26.07;51.98
54459;BME280;40368;49.350;8.152;2023-09-18T04:35:07;993.3;;;26.04;51.97
54459;BME280;40368;49.350;8.152;2023-09-18T04:36:07;993.2;;;25.99;52.14
54459;BME280;40368;49.350;8.152;2023-09-18T04:37:07;993.3;;;25.94;53.55
54459;BME280;40368;49.350;8.152;2023-09-18T04:38:07;993.4;;;25.91;52.91
54459;BME280;40368;49.350;8.152;2023-09-18T04:39:07;993.4;;;25.92;51.68
54459;BME280;40368;49.350;8.152;2023-09-18T04:40:07;993.3;;;25.9;52.36
54459;BME280;40368;49.350;8.152;2023-09-18T04:41:07;993.2;;;25.88;54.27
54459;BME280;40368;49.350;8.152;2023-09-18T04:42:07;993.3;;;25.82;54.26
54459;BME280;40368;49.350;8.152;2023-09-18T04:43:07;993.3;;;25.8;53.43
54459;BME280;40368;49.350;8.152;2023-09-18T04:44:07;993.3;;;25.77;53.74
54459;BME280;40368;49.350;8.152;2023-09-18T04:45:07;993.3;;;25.74;54.1
54459;BME280;40368;49.350;8.152;2023-09-18T04:46:07;993.3;;;25.71;53.85
54459;BME280;40368;49.350;8.152;2023-09-18T04:47:07;993.4;;;25.7;54.21
54459;BME280;40368;49.350;8.152;2023-09-18T04:48:07;993.4;;;25.67;55.08
54459;BME280;40368;49.350;8.152;2023-09-18T04:49:07;993.5;;;25.62;54.56
54459;BME280;40368;49.350;8.152;2023-09-18T04:50:07;993.5;;;25.57;55.34
54459;BME280;40368;49.350;8.152;2023-09-18T04:51:07;993.4;;;25.56;52.88
54459;BME280;40368;49.350;8.152;2023-09-18T04:52:07;993.4;;;25.6;54.7
54459;BME280;40368;49.350;8.152;2023-09-18T04:53:07;993.3;;;25.58;54.9
54459;BME280;40368;49.350;8.152;2023-09-18T04:54:07;993.6;;;25.58;55.37
54459;BME280;40368;49.350;8.152;2023-09-18T04:55:07;993.6;;;25.53;55.14
54459;BME280;40368;49.350;8.152;2023-09-18T04:56:07;993.6;;;25.49;55.38
54459;BME280;40368;49.350;8.152;2023-09-18T04:57:07;993.5;;;25.47;55.09
54459;BME280;40368;49.350;8.152;2023-09-18T04:58:07;993.6;;;25.45;55.37
54459;BME280;40368;49.350;8.152;2023-09-18T04:59:07;993.6;;;25.43;55.37
54459;BME280;40368;49.350;8.152;2023-09-18T05:00:07;993.5;;;25.41;55.09
54459;BME280;40368;49.350;8.152;2023-09-18T05:01:07;993.5;;;25.38;55.37
54459;BME280;40368;49.350;8.152;2023-09-18T05:02:07;993.6;;;25.33;54.88
54459;BME280;40368;49.350;8.152;2023-09-18T05:03:07;993.6;;;25.31;55.18
54459;BME280;40368;49.350;8.152;2023-09-18T05:04:07;993.7;;;25.31;55.65
54459;BME280;40368;49.350;8.152;2023-09-18T05:05:08;993.7;;;25.33;54.77
54459;BME280;40368;49.350;8.152;2023-09-18T05:06:07;993.7;;;25.33;55.39
54459;BME280;40368;49.350;8.152;2023-09-18T05:07:07;993.7;;;25.31;55.61
54459;BME280;40368;49.350;8.152;2023-09-18T05:08:07;993.7;;;25.31;55.34
54459;BME280;40368;49.350;8.152;2023-09-18T05:09:07;993.6;;;25.33;54.57
54459;BME280;40368;49.350;8.152;2023-09-18T05:10:07;993.6;;;25.33;53.51
54459;BME280;40368;49.350;8.152;2023-09-18T05:11:06;993.7;;;25.38;53.65
54459;BME280;40368;49.350;8.152;2023-09-18T05:12:08;993.7;;;25.38;55.04
54459;BME280;40368;49.350;8.152;2023-09-18T05:13:07;993.7;;;25.37;54.6
54459;BME280;40368;49.350;8.152;2023-09-18T05:14:07;993.7;;;25.38;53.15
54459;BME280;40368;49.350;8.152;2023-09-18T05:15:07;993.7;;;25.43;54.57
54459;BME280;40368;49.350;8.152;2023-09-18T05:16:07;993.8;;;25.48;54.15
54459;BME280;40368;49.350;8.152;2023-09-18T05:17:09;993.9;;;25.5;54.99
54459;BME280;40368;49.350;8.152;2023-09-18T05:18:07;993.9;;;25.48;55.05
54459;BME280;40368;49.350;8.152;2023-09-18T05:19:07;993.9;;;25.46;54.41
54459;BME280;40368;49.350;8.152;2023-09-18T05:20:07;994;;;25.47;54.42
54459;BME280;40368;49.350;8.152;2023-09-18T05:21:08;994;;;25.5;54.83
54459;BME280;40368;49.350;8.152;2023-09-18T05:22:07;994;;;25.51;54.69
54459;BME280;40368;49.350;8.152;2023-09-18T05:23:07;994;;;25.53;54.18
54459;BME280;40368;49.350;8.152;2023-09-18T05:24:07;994;;;25.53;54.17
54459;BME280;40368;49.350;8.152;2023-09-18T05:25:07;994;;;25.5;52.9
54459;BME280;40368;49.350;8.152;2023-09-18T05:26:07;993.9;;;25.53;53.14
54459;BME280;40368;49.350;8.152;2023-09-18T05:27:07;994;;;25.56;53.37
54459;BME280;40368;49.350;8.152;2023-09-18T05:28:07;993.8;;;25.54;53.35
54459;BME280;40368;49.350;8.152;2023-09-18T05:29:07;993.9;;;25.54;53.06
54459;BME280;40368;49.350;8.152;2023-09-18T05:30:07;993.9;;;25.55;52.43
54459;BME280;40368;49.350;8.152;2023-09-18T05:31:07;993.9;;;25.59;52.61
54459;BME280;40368;49.350;8.152;2023-09-18T05:32:07;993.9;;;25.53;52.62
54459;BME280;40368;49.350;8.152;2023-09-18T05:33:07;994;;;25.51;52.73
54459;BME280;40368;49.350;8.152;2023-09-18T05:34:07;993.8;;;25.53;53.26
54459;BME280;40368;49.350;8.152;2023-09-18T05:35:07;993.8;;;25.55;52.97
54459;BME280;40368;49.350;8.152;2023-09-18T05:36:07;993.7;;;25.56;52.92
54459;BME280;40368;49.350;8.152;2023-09-18T05:37:07;993.6;;;25.57;52.49
54459;BME280;40368;49.350;8.152;2023-09-18T05:38:07;993.6;;;25.61;52.56